Nearby METAR Reports


Data Updates Approximately Every Four Hours

METAR is the international standard code format for hourly surface weather observations which is analogous to the SA coding currently used in the US. The acronym roughly translates from French as Aviation Routine Weather Report. SPECI is merely the code name given to METAR formatted products which are issued on a special non-routine basis as dictated by changing meteorological conditions. The SPECI acronym roughly translates as Aviation Selected Special Weather Report.

KSLH - Cheboygan, Michigan, USA
Distance from station: W 9mi, 14km
Updated: 04/24/2019 4:15am
Clear
Clear
 Wind from W
Wind: W 5 mph , 7 km/h
Temperature: 30°F , -1°C
Wind Chill: 25°F , -4°C
Dew Point: 28°F , -2°C
Humidity: 93%
Barometer: 30.00 inHg , 1015.9 hPa
Clouds: Clear
Visibility: 10 miles , 16 km
2019/04/24 08:15 KSLH 240815Z AUTO 27004KT 10SM CLR M01/M02 A3000 RMK AO2 T10081022
KMCD - Mackinac Island, Michigan, USA
Distance from station: NW 19mi, 31km
Updated: 04/24/2019 4:16am
Clear
Clear
 Wind from W
Wind: W 5 mph , 7 km/h
Temperature: 32°F , 0°C
Wind Chill: 27°F , -3°C
Dew Point: 28°F , -2°C
Humidity: 87%
Barometer: 30.00 inHg , 1015.9 hPa
Clouds: Clear
Visibility: 10 miles , 16 km
2019/04/24 08:16 KMCD 240816Z AUTO 26004KT 10SM CLR 00/M02 A3000 RMK AO2 T00001019
 
KPLN - Pellston, Michigan, USA
Distance from station: WSW 24mi, 38km
Updated: 04/24/2019 3:54am
Clear
Clear
 Wind from NW
Wind: NW 5 mph , 7 km/h
Temperature: 28°F , -2°C
Wind Chill: 22°F , -6°C
Dew Point: 25°F , -4°C
Humidity: 86%
Barometer: 30.02 inHg , 1016.6 hPa
Clouds: Clear
Visibility: 10 miles , 16 km
2019/04/24 07:54 KPLN 240754Z AUTO 31004KT 10SM CLR M02/M04 A3002 RMK AO2 SLP173 T10221039
KPZQ - Rogers City, Michigan, USA
Distance from station: SE 31mi, 50km
Updated: 04/24/2019 4:16am
Clear
Clear
 Wind from W
Wind: W 5 mph , 7 km/h
Temperature: 34°F , 1°C
Wind Chill: 29°F , -2°C
Dew Point: 30°F , -1°C
Humidity: 87%
Barometer: 30.00 inHg , 1015.9 hPa
Clouds: Clear
Visibility: 10 miles , 16 km
2019/04/24 08:16 KPZQ 240816Z AUTO 28004KT 10SM CLR 01/M01 A3000 RMK AO2 T00121006
 
KMGN - Harbor Springs, Michigan, USA
Distance from station: WSW 32mi, 52km
Updated: 04/24/2019 4:16am
Clear
Clear
 Wind from calm
Wind: Calm
Temperature: 32°F , 0°C
Dew Point: 30°F , -1°C
Humidity: 93%
Barometer: 30.01 inHg , 1016.3 hPa
Clouds: Clear
Visibility: 10 miles , 16 km
2019/04/24 08:16 KMGN 240816Z AUTO 00000KT 10SM CLR 00/M01 A3001 RMK AO2 T10041009
KDRM - Drummond Is, Michigan, USA
Distance from station: NE 36mi, 59km
Updated: 04/24/2019 4:16am
Clear
Clear
 Wind from WNW
Wind: WNW 5 mph , 7 km/h
Temperature: 34°F , 1°C
Wind Chill: 29°F , -2°C
Dew Point: 32°F , 0°C
Humidity: 93%
Barometer: 29.98 inHg , 1015.2 hPa
Clouds: Clear
Visibility: 10 miles , 16 km
2019/04/24 08:16 KDRM 240816Z AUTO 30004KT 10SM CLR 01/00 A2998 RMK AO2 T00081005
 
KCIU - Chippewa Intl, Michigan, USA
Distance from station: N 41mi, 66km
Updated: 04/24/2019 3:56am
Clear
Clear
 Wind from W
Wind: W 3 mph , 6 km/h
Temperature: 28°F , -2°C
Dew Point: 27°F , -3°C
Humidity: 93%
Barometer: 30.00 inHg , 1015.9 hPa
Clouds: Clear
Visibility: 10 miles , 16 km
2019/04/24 07:56 KCIU 240756Z AUTO 26003KT 10SM CLR M02/M03 A3000 RMK AO2 SLP187 T10221028 FZRANO
KGLR - Gaylord, Michigan, USA
Distance from station: SSW 48mi, 77km
Updated: 04/24/2019 3:53am
Clear
Clear
 Wind from calm
Wind: Calm
Temperature: 30°F , -1°C
Dew Point: 30°F , -1°C
Humidity: 100%
Barometer: 29.99 inHg , 1015.6 hPa
Clouds: Clear
Visibility: 10 miles , 16 km
2019/04/24 07:53 KGLR 240753Z AUTO 00000KT 10SM CLR M01/M01 A2999 RMK AO2 SLP169 T10061006
 
KCVX - Charlevoix, Michigan, USA
Distance from station: WSW 52mi, 83km
Updated: 04/24/2019 4:16am
Clear
Clear
 Wind from calm
Wind: Calm
Temperature: 30°F , -1°C
Dew Point: 30°F , -1°C
Humidity: 100%
Barometer: 30.05 inHg , 1017.6 hPa
Clouds: Clear
Visibility: 10 miles , 16 km
2019/04/24 08:16 KCVX 240816Z AUTO 00000KT 10SM CLR M01/M01 A3005 RMK AO2 T10071013
KANJ - Sault Ste Marie, Michigan, USA
Distance from station: N 56mi, 89km
Updated: 04/24/2019 3:55am
Clear
Clear
 Wind from W
Wind: W 6 mph , 9 km/h
Temperature: 32°F , 0°C
Wind Chill: 26°F , -3°C
Dew Point: 30°F , -1°C
Humidity: 93%
Barometer: 29.99 inHg , 1015.6 hPa
Clouds: Clear
Visibility: 10 miles , 16 km
2019/04/24 07:55 KANJ 240755Z AUTO 27005KT 10SM CLR 00/M01 A2999 RMK AO2 SLP161 T00001011
 
KAPN - Alpena, Michigan, USA
Distance from station: SE 56mi, 89km
Updated: 04/24/2019 3:54am
Clear
Clear
 Wind from WNW
Wind: WNW 6 mph , 9 km/h
Temperature: 36°F , 2°C
Wind Chill: 31°F , -1°C
Dew Point: 32°F , 0°C
Humidity: 87%
Barometer: 29.99 inHg , 1015.6 hPa
Clouds: Clear
Visibility: 10 miles , 16 km
2019/04/24 07:54 KAPN 240754Z AUTO 30005KT 10SM CLR 02/00 A2999 RMK AO2 SLP160 T00220000
CYAM - Sault Ste Marie, Ontario, Canada
Distance from station: N 56mi, 90km
Updated: 04/24/2019 4:00am
Mostly cloudy
Mostly cloudy
 Wind from WNW
Wind: WNW 7 mph , 11 km/h
Temperature: 32°F , 0°C
Wind Chill: 25°F , -4°C
Dew Point: 30°F , -1°C
Humidity: 93%
Barometer: 29.99 inHg , 1015.6 hPa
Clouds: Mostly cloudy
Visibility: 15 miles , 24 km
Cloud details: Partly cloudy 16000 ft
Mostly cloudy 21000 ft
2019/04/24 08:00 CYAM 240800Z 30006KT 15SM SCT160 BKN210 00/M01 A2999 RMK AS4CS2 FROIN SLP166
 
KSJX - Beaver Island, Michigan, USA
Distance from station: W 60mi, 96km
Updated: 04/24/2019 4:16am
Clear
Clear
 Wind from calm
Wind: Calm
Temperature: 27°F , -3°C
Dew Point: 27°F , -3°C
Humidity: 100%
Barometer: 30.01 inHg , 1016.3 hPa
Clouds: Clear
Visibility: 10 miles , 16 km
2019/04/24 08:16 KSJX 240816Z AUTO 00000KT 10SM CLR M03/M03 A3001 RMK AO2 T10281031
KACB - Bellaire, Michigan, USA
Distance from station: SW 63mi, 102km
Updated: 04/24/2019 4:15am
Mist, Mostly cloudy
Mist, Mostly cloudy
 Wind from calm
Wind: Calm
Temperature: 30°F , -1°C
Dew Point: 30°F , -1°C
Humidity: 100%
Barometer: 30.03 inHg , 1016.9 hPa
Summary: Mist
Clouds: Mostly cloudy
Visibility: 2 miles , 3 km
Cloud details: Mostly cloudy 100 ft
2019/04/24 08:15 KACB 240815Z AUTO 00000KT 2SM BR BKN001 M01/M01 A3003 RMK AO2 VIS 1/2V5 T10081015
 
CWNL - Great Duck Island, Ontario, Canada
Distance from station: E 66mi, 106km
Updated: 04/24/2019 3:00am
NOT Current

 Wind from WNW
Wind: WNW 13 mph , 20 km/h, Gust: 18 mph , 30 km/h
Temperature: 36°F , 2°C
Wind Chill: 27°F , -3°C
Dew Point: 32°F , 0°C
Humidity: 87%
2019/04/24 07:00 CWNL 240700Z AUTO 30011G16KT 02/M00 RMK AO1 SLP148 T00211001 51005
KERY - Newberry, Michigan, USA
Distance from station: NW 69mi, 112km
Updated: 04/24/2019 4:15am
Clear
Clear
 Wind from W
Wind: W 3 mph , 6 km/h
Temperature: 30°F , -1°C
Dew Point: 28°F , -2°C
Humidity: 93%
Barometer: 29.99 inHg , 1015.6 hPa
Clouds: Clear
Visibility: 10 miles , 16 km
2019/04/24 08:15 KERY 240815Z AUTO 27003KT 10SM CLR M01/M02 A2999 RMK AO2 T10091021
 
KGOV - Grayling Af, Michigan, USA
Distance from station: SSW 70mi, 113km
Updated: 04/24/2019 3:58am

 Wind from W
Wind: W 3 mph , 6 km/h
Visibility: 10 miles , 16 km
2019/04/24 07:58 KGOV 240758Z AUTO 27003KT 10SM M M02/M02 A3000 RMK AO2 SLP177 T10181018 $